Time;durP1;ratioP1;P1;durP2;ratioP2;P2;SDS_P1;SDS_P2;PMS_P1;PMS_P2;Temp;Humidity;BMP_temperature;BMP_pressure;BME280_temperature;BME280_humidity;BME280_pressure;Samples;Min_cycle;Max_cycle;Signal;HPM_P1;HPM_P2
2021/10/24 00:01:52;;;;;;;30.05;9.58;;;;;;;11.31;56.69;102359.09;1760595;81;21332;-79
2021/10/24 00:04:27;;;;;;;29.67;10.03;;;;;;;11.29;56.88;102364.01;1760716;81;21605;-79
2021/10/24 00:07:00;;;;;;;24.80;8.93;;;;;;;11.29;56.78;102356.53;1759134;78;21835;-75
2021/10/24 00:09:32;;;;;;;;;;;;;;;11.30;56.55;102361.53;1761063;81;21707;-81
2021/10/24 00:12:06;;;;;;;31.68;9.28;;;;;;;11.27;56.20;102358.70;1750902;82;20245;-74
2021/10/24 00:14:39;;;;;;;24.52;9.75;;;;;;;11.25;56.28;102357.22;1751044;82;21201;-83
2021/10/24 00:17:13;;;;;;;21.10;8.45;;;;;;;11.22;56.08;102357.12;1751067;82;21229;-74
2021/10/24 00:19:47;;;;;;;18.90;8.98;;;;;;;11.22;56.29;102342.35;1761239;81;21767;-80
2021/10/24 00:22:20;;;;;;;22.02;9.28;;;;;;;11.21;55.99;102344.30;1751201;80;21194;-74
2021/10/24 00:24:52;;;;;;;22.05;9.25;;;;;;;11.20;55.72;102342.56;1761230;81;21197;-75
2021/10/24 00:27:26;;;;;;;28.98;9.68;;;;;;;11.15;55.27;102334.59;1751920;82;21336;-75
2021/10/24 00:29:59;;;;;;;25.52;10.25;;;;;;;11.10;55.37;102335.28;1761852;81;21371;-74
2021/10/24 00:32:32;;;;;;;23.18;9.25;;;;;;;11.08;55.36;102324.90;1756200;81;21308;-75
2021/10/24 00:35:06;;;;;;;23.25;9.68;;;;;;;11.05;55.26;102335.09;1731562;81;21271;-74
2021/10/24 00:37:37;;;;;;;;;;;;;;;11.03;55.38;102335.86;1728675;81;21316;-74
2021/10/24 00:40:10;;;;;;;23.92;10.13;;;;;;;11.01;55.14;102332.43;1736673;83;20245;-77
2021/10/24 00:42:50;;;;;;;22.98;9.43;;;;;;;10.99;55.30;102332.34;1725416;81;21305;-75
2021/10/24 00:45:24;;;;;;;22.20;9.30;;;;;;;10.97;55.19;102341.45;1701670;81;21208;-74
2021/10/24 00:47:57;;;;;;;25.00;9.08;;;;;;;10.95;55.40;102347.22;1744018;80;21319;-74
2021/10/24 00:50:33;;;;;;;19.23;8.70;;;;;;;10.97;55.60;102358.98;1698882;83;21259;-80
2021/10/24 00:53:07;;;;;;;28.12;8.78;;;;;;;10.98;55.84;102376.50;1724412;82;21332;-72
2021/10/24 00:55:40;;;;;;;27.25;9.58;;;;;;;10.98;56.19;102375.97;1734680;80;21252;-73
2021/10/24 00:58:13;;;;;;;29.82;10.98;;;;;;;10.98;56.46;102369.55;1725275;83;21192;-74
2021/10/24 01:00:47;;;;;;;28.90;10.75;;;;;;;10.98;56.50;102373.72;1735372;83;21205;-73
2021/10/24 01:03:20;;;;;;;;;;;;;;;10.94;56.26;102376.09;1728046;82;21296;-73
2021/10/24 01:05:52;;;;;;;34.10;10.43;;;;;;;10.92;56.33;102369.05;1736374;82;20330;-74
2021/10/24 01:08:25;;;;;;;22.40;10.65;;;;;;;10.87;56.44;102379.44;1711886;80;21285;-75
2021/10/24 01:10:59;;;;;;;23.80;10.13;;;;;;;10.84;56.52;102385.45;1729710;81;21448;-76
2021/10/24 01:13:36;;;;;;;28.45;9.88;;;;;;;10.85;56.81;102384.91;1727867;83;21278;-82
2021/10/24 01:16:17;;;;;;;26.85;10.30;;;;;;;10.83;56.63;102393.45;1732281;83;21375;-84
2021/10/24 01:18:52;;;;;;;27.02;9.65;;;;;;;10.81;56.40;102395.61;1732052;82;21500;-76
2021/10/24 01:21:26;;;;;;;24.23;10.03;;;;;;;10.80;56.30;102391.12;1732037;83;21237;-75
2021/10/24 01:24:00;;;;;;;27.20;9.53;;;;;;;10.79;56.15;102381.62;1732228;81;21213;-75
2021/10/24 01:26:35;;;;;;;33.15;9.45;;;;;;;10.80;56.26;102384.70;1732557;83;21206;-80
2021/10/24 01:29:09;;;;;;;23.18;9.50;;;;;;;10.80;55.60;102374.45;1731825;83;21324;-74
2021/10/24 01:31:41;;;;;;;28.50;9.15;;;;;;;10.77;55.47;102388.77;1732393;81;21178;-76
2021/10/24 01:34:15;;;;;;;;;;;;;;;10.76;55.54;102417.63;1737894;80;21214;-76
2021/10/24 01:36:47;;;;;;;18.65;7.80;;;;;;;10.75;55.62;102422.88;1732241;83;20191;-76
2021/10/24 01:39:21;;;;;;;23.10;8.08;;;;;;;10.75;56.34;102413.16;1732118;83;21202;-75
2021/10/24 01:41:53;;;;;;;25.10;8.80;;;;;;;10.77;56.50;102407.39;1732074;83;21252;-75
2021/10/24 01:44:28;;;;;;;28.57;9.23;;;;;;;10.77;56.14;102402.66;1731692;83;21339;-78
2021/10/24 01:47:00;;;;;;;21.35;8.38;;;;;;;10.75;55.87;102419.23;1732187;81;21746;-76
2021/10/24 01:49:35;;;;;;;18.52;7.62;;;;;;;10.70;56.02;102424.06;1730925;83;21237;-81
2021/10/24 01:52:10;;;;;;;31.85;9.43;;;;;;;10.68;56.42;102420.66;1726752;81;21403;-80
2021/10/24 01:54:43;;;;;;;17.05;8.33;;;;;;;10.66;56.68;102422.82;1760715;81;21735;-79
2021/10/24 01:57:16;;;;;;;25.08;8.88;;;;;;;10.68;57.02;102428.12;1760775;81;21363;-79
2021/10/24 01:59:50;;;;;;;25.35;9.33;;;;;;;10.68;56.91;102429.00;1760488;81;21190;-79
2021/10/24 02:02:25;;;;;;;23.52;9.73;;;;;;;10.67;56.87;102421.74;1756202;81;22033;-81
2021/10/24 02:05:15;;;;;;;24.80;8.50;;;;;;;10.66;56.86;102408.06;1738850;78;21278;-68
2021/10/24 02:07:48;;;;;;;;;;;;;;;10.65;56.82;102410.53;1709421;84;21223;-76
2021/10/24 02:10:20;;;;;;;22.13;8.15;;;;;;;10.64;56.79;102404.66;1707208;84;20284;-74
2021/10/24 02:12:53;;;;;;;20.75;7.83;;;;;;;10.62;56.60;102401.23;1707331;84;21372;-78
2021/10/24 02:15:28;;;;;;;20.25;8.58;;;;;;;10.60;56.31;102409.80;1730512;82;21724;-76
2021/10/24 02:18:03;;;;;;;24.65;7.70;;;;;;;10.58;56.25;102410.54;1707461;84;21210;-75
2021/10/24 02:20:38;;;;;;;21.35;9.13;;;;;;;10.57;55.90;102424.11;1708665;84;21207;-76
2021/10/24 02:23:11;;;;;;;;;;;;;;;10.56;56.31;102419.63;1696648;83;21179;-76
2021/10/24 02:25:43;;;;;;;20.60;7.90;;;;;;;10.57;56.00;102417.17;1710555;83;20232;-80
2021/10/24 02:28:16;;;;;;;18.65;7.75;;;;;;;10.56;56.02;102411.83;1709469;84;21348;-74
2021/10/24 02:30:49;;;;;;;25.45;7.90;;;;;;;10.54;55.96;102417.63;1708481;84;21274;-73
2021/10/24 02:33:39;;;;;;;15.63;7.53;;;;;;;10.53;55.99;102436.72;1707550;84;21227;-76
2021/10/24 02:36:16;;;;;;;23.20;8.30;;;;;;;10.50;56.33;102439.94;1689967;84;21728;-79
2021/10/24 02:38:51;;;;;;;20.57;8.00;;;;;;;10.49;56.26;102450.73;1706977;84;21218;-74
2021/10/24 02:41:24;;;;;;;20.32;7.97;;;;;;;10.47;56.40;102463.13;1707403;84;21203;-80
2021/10/24 02:43:58;;;;;;;18.95;7.33;;;;;;;10.45;56.33;102458.34;1704513;84;21195;-82
2021/10/24 02:46:32;;;;;;;19.40;8.35;;;;;;;10.42;56.62;102461.53;1706503;84;21202;-74
2021/10/24 02:49:07;;;;;;;22.48;8.85;;;;;;;10.41;56.67;102460.66;1704684;84;21242;-73
2021/10/24 02:51:41;;;;;;;30.70;8.53;;;;;;;10.40;56.68;102446.47;1707560;84;21246;-74
2021/10/24 02:54:14;;;;;;;23.80;9.35;;;;;;;10.38;56.84;102447.23;1707553;84;21195;-76
2021/10/24 02:56:47;;;;;;;20.48;10.93;;;;;;;10.40;56.84;102452.58;1707462;84;21752;-74
2021/10/24 02:59:21;;;;;;;31.55;10.43;;;;;;;10.40;56.99;102447.02;1728149;83;21337;-74
2021/10/24 03:01:53;;;;;;;28.00;11.85;;;;;;;10.41;57.05;102459.28;1767539;80;21436;-74
2021/10/24 03:04:27;;;;;;;23.15;10.45;;;;;;;10.41;57.24;102449.56;1767102;81;21330;-74
2021/10/24 03:06:59;;;;;;;21.02;9.93;;;;;;;10.42;57.66;102443.48;1757467;81;21209;-74
2021/10/24 03:09:34;;;;;;;18.98;10.15;;;;;;;10.44;58.46;102450.53;1757066;81;21158;-84
2021/10/24 03:12:09;;;;;;;25.27;10.32;;;;;;;10.43;58.00;102453.52;1756769;80;21727;-74
2021/10/24 03:14:42;;;;;;;28.87;12.65;;;;;;;10.39;58.02;102453.65;1756779;81;21229;-84
2021/10/24 03:17:16;;;;;;;26.62;12.33;;;;;;;10.35;58.08;102458.75;1757357;81;21327;-77
2021/10/24 03:19:49;;;;;;;27.32;12.07;;;;;;;10.33;58.23;102457.29;1757057;81;21710;-79
2021/10/24 03:22:22;;;;;;;22.80;11.10;;;;;;;10.30;58.43;102457.18;1694197;85;21336;-87
2021/10/24 03:24:55;;;;;;;27.62;11.25;;;;;;;10.25;58.74;102456.97;1695689;83;21138;-88
2021/10/24 03:27:28;;;;;;;25.08;11.43;;;;;;;10.23;59.09;102456.86;1664032;85;21360;-89
2021/10/24 03:30:01;;;;;;;25.08;10.90;;;;;;;10.19;59.32;102451.41;1695716;79;21196;-91
2021/10/24 03:32:47;;;;;;;25.10;10.50;;;;;;;10.16;59.44;102454.63;1687314;83;21219;-89
2021/10/24 03:35:21;;;;;;;31.50;10.88;;;;;;;10.13;59.56;102458.69;1682313;85;21317;-82
2021/10/24 03:37:54;;;;;;;20.65;9.10;;;;;;;10.08;59.71;102465.92;1682914;85;21294;-82
2021/10/24 03:40:26;;;;;;;21.80;8.48;;;;;;;10.04;59.92;102466.89;1683267;85;21214;-83
2021/10/24 03:42:59;;;;;;;18.62;7.70;;;;;;;10.05;60.38;102473.30;1695171;84;21445;-84
2021/10/24 03:45:44;;;;;;;22.02;7.97;;;;;;;10.04;60.55;102475.21;1713277;84;21368;-87
2021/10/24 03:48:22;;;;;;;16.90;7.08;;;;;;;10.03;60.99;102476.28;1712284;84;21187;-86
2021/10/24 03:50:54;;;;;;;23.07;9.30;;;;;;;10.02;61.01;102483.39;1714654;84;21199;-86
2021/10/24 03:53:27;;;;;;;;;;;;;;;10.01;61.35;102481.17;1718073;82;21385;-82
2021/10/24 03:56:00;;;;;;;23.25;9.05;;;;;;;10.02;61.32;102482.00;1726158;81;20297;-84
2021/10/24 03:58:34;;;;;;;26.87;10.68;;;;;;;10.02;61.42;102485.65;1711484;84;21175;-87
2021/10/24 04:01:07;;;;;;;28.25;10.68;;;;;;;10.09;61.35;102480.98;1723681;83;21368;-93
2021/10/24 04:03:43;;;;;;;24.77;11.70;;;;;;;10.17;61.33;102493.80;1711610;84;21438;-84
2021/10/24 04:06:18;;;;;;;24.77;10.43;;;;;;;10.20;61.40;102484.52;1721170;82;22474;-83
2021/10/24 04:08:52;;;;;;;23.02;11.15;;;;;;;10.18;61.02;102485.79;1710233;84;21397;-90
2021/10/24 04:11:37;;;;;;;24.85;9.65;;;;;;;10.12;60.75;102486.12;1707827;83;21743;-84
2021/10/24 04:14:27;;;;;;;25.88;10.95;;;;;;;10.09;60.89;102485.14;1709726;84;21692;-84
2021/10/24 04:17:01;;;;;;;25.15;8.63;;;;;;;10.03;60.52;102491.55;1706978;84;21403;-84
2021/10/24 04:19:41;;;;;;;24.80;8.28;;;;;;;9.94;60.31;102487.77;1709951;84;21716;-83
2021/10/24 04:22:14;;;;;;;20.27;7.45;;;;;;;9.86;59.73;102492.98;1709643;84;21302;-73
2021/10/24 04:24:47;;;;;;;17.60;8.25;;;;;;;9.80;59.86;102491.06;1709505;84;21879;-74
2021/10/24 04:27:19;;;;;;;14.55;7.17;;;;;;;9.74;59.42;102496.06;1709368;84;21347;-74
2021/10/24 04:29:52;;;;;;;18.62;7.28;;;;;;;9.70;59.73;102499.47;1709381;84;21345;-74
2021/10/24 04:32:26;;;;;;;27.67;6.97;;;;;;;9.66;59.95;102506.53;1735592;81;21799;-74
2021/10/24 04:34:59;;;;;;;17.15;7.25;;;;;;;9.59;59.72;102506.50;1722687;83;21680;-74
2021/10/24 04:37:32;;;;;;;16.55;7.05;;;;;;;9.54;59.25;102506.81;1710382;82;21364;-75
2021/10/24 04:40:06;;;;;;;17.13;7.00;;;;;;;9.45;59.00;102520.01;1722837;83;21946;-75
2021/10/24 04:42:42;;;;;;;16.23;6.85;;;;;;;9.38;58.71;102518.27;1720583;83;21232;-74
2021/10/24 04:45:14;;;;;;;19.50;6.10;;;;;;;9.32;58.95;102526.90;1723490;83;21187;-73
2021/10/24 04:47:47;;;;;;;14.20;6.60;;;;;;;9.28;58.99;102526.11;1734364;82;21353;-75
2021/10/24 04:50:20;;;;;;;17.92;5.87;;;;;;;9.21;58.67;102538.57;1735418;82;21340;-75
2021/10/24 04:52:52;;;;;;;13.58;6.17;;;;;;;9.18;58.88;102538.13;1722620;83;21531;-75
2021/10/24 04:55:27;;;;;;;14.07;5.55;;;;;;;9.18;58.72;102542.28;1735456;82;21457;-74
2021/10/24 04:58:00;;;;;;;16.80;5.45;;;;;;;9.16;58.71;102543.87;1722628;83;21344;-74
2021/10/24 05:00:33;;;;;;;13.03;5.42;;;;;;;9.18;58.59;102545.89;1709674;83;21364;-77
2021/10/24 05:03:06;;;;;;;15.88;6.35;;;;;;;9.18;58.26;102552.82;1709411;84;21846;-74
2021/10/24 05:05:40;;;;;;;14.73;5.80;;;;;;;9.15;58.26;102552.37;1721144;82;21207;-75
2021/10/24 05:08:13;;;;;;;12.68;5.17;;;;;;;9.13;58.11;102565.59;1716696;83;21404;-74
2021/10/24 05:10:46;;;;;;;15.60;5.20;;;;;;;9.15;58.69;102568.48;1721072;83;21301;-73
2021/10/24 05:13:19;;;;;;;19.45;6.12;;;;;;;9.15;58.22;102562.95;1721237;83;21210;-74
2021/10/24 05:15:52;;;;;;;17.42;5.37;;;;;;;9.13;57.82;102569.75;1721160;83;21233;-77
2021/10/24 05:18:31;;;;;;;11.30;4.90;;;;;;;9.10;57.78;102569.63;1725128;83;21341;-75
2021/10/24 05:21:04;;;;;;;12.37;4.50;;;;;;;9.12;57.91;102573.04;1723582;83;21836;-74
2021/10/24 05:23:39;;;;;;;14.53;5.40;;;;;;;9.16;58.29;102581.80;1722912;83;21364;-76
2021/10/24 05:26:13;;;;;;;18.87;5.70;;;;;;;9.18;58.24;102576.38;1723771;83;21415;-79
2021/10/24 05:28:48;;;;;;;10.82;4.83;;;;;;;9.20;58.03;102593.68;1721468;83;21389;-80
2021/10/24 05:31:21;;;;;;;13.05;4.95;;;;;;;9.22;58.05;102588.77;1754177;78;21411;-73
2021/10/24 05:33:58;;;;;;;14.75;5.83;;;;;;;9.27;57.76;102589.54;1748735;81;21389;-75
2021/10/24 05:36:32;;;;;;;17.45;5.75;;;;;;;9.27;57.49;102590.41;1766909;81;21373;-72
2021/10/24 05:39:05;;;;;;;16.50;6.03;;;;;;;9.30;57.78;102600.23;1770007;81;21668;-74
2021/10/24 05:41:38;;;;;;;13.73;5.23;;;;;;;9.32;57.46;102598.97;1769908;81;21316;-73
2021/10/24 05:44:14;;;;;;;13.30;5.55;;;;;;;9.34;57.32;102602.38;1769447;81;21162;-74
2021/10/24 05:46:48;;;;;;;14.07;5.25;;;;;;;9.36;57.16;102603.02;1769247;81;21348;-73
2021/10/24 05:49:22;;;;;;;15.32;6.08;;;;;;;9.39;57.27;102605.39;1769579;79;21746;-71
2021/10/24 05:51:56;;;;;;;16.77;6.83;;;;;;;9.44;57.39;102608.93;1769542;81;21174;-72
2021/10/24 05:54:29;;;;;;;11.80;5.57;;;;;;;9.48;57.36;102610.23;1769790;81;21182;-73
2021/10/24 05:57:02;;;;;;;18.73;5.58;;;;;;;9.53;57.76;102615.48;1769437;81;21166;-73
2021/10/24 05:59:39;;;;;;;14.35;5.12;;;;;;;9.59;57.63;102616.03;1746995;81;21291;-72
2021/10/24 06:02:14;;;;;;;13.55;5.30;;;;;;;9.66;57.45;102623.02;1768803;81;21304;-73
2021/10/24 06:04:57;;;;;;;13.85;5.20;;;;;;;9.73;57.18;102626.66;1722213;82;21213;-74
2021/10/24 06:07:33;;;;;;;16.73;5.62;;;;;;;9.82;57.01;102627.66;1769563;79;21316;-72
2021/10/24 06:10:21;;;;;;;14.53;5.30;;;;;;;9.90;56.89;102623.30;1748331;80;21663;-73
2021/10/24 06:12:46;;;;;;;17.12;5.95;;;;;;;9.99;56.96;102624.84;1709686;84;21801;-83
2021/10/24 06:15:21;;;;;;;19.40;6.58;;;;;;;10.11;57.01;102620.94;1748748;81;21300;-86
2021/10/24 06:17:54;;;;;;;16.75;6.00;;;;;;;10.25;56.70;102627.70;1769138;79;21212;-88
2021/10/24 06:20:28;;;;;;;14.23;5.47;;;;;;;10.38;56.37;102623.55;1750178;80;21698;-87
2021/10/24 06:23:01;;;;;;;15.55;5.92;;;;;;;10.54;55.87;102621.77;1770222;81;21316;-89
2021/10/24 06:25:36;;;;;;;17.27;6.22;;;;;;;10.68;55.58;102626.77;1747812;82;21304;-79
2021/10/24 06:28:11;;;;;;;15.90;5.80;;;;;;;10.84;55.44;102624.44;1744629;82;21368;-82
2021/10/24 06:30:44;;;;;;;15.20;5.30;;;;;;;11.04;55.06;102629.95;1747533;78;21181;-74
2021/10/24 06:33:18;;;;;;;16.57;5.80;;;;;;;11.21;54.47;102629.30;1826508;78;21359;-73
2021/10/24 06:35:52;;;;;;;17.12;6.10;;;;;;;11.38;54.02;102629.13;1803012;78;21447;-79
2021/10/24 06:38:38;;;;;;;19.27;5.67;;;;;;;11.51;53.31;102631.89;1812151;78;21953;-69
2021/10/24 06:41:18;;;;;;;18.20;5.90;;;;;;;11.61;52.83;102630.08;1796882;78;21895;-74
2021/10/24 06:43:55;;;;;;;16.52;5.83;;;;;;;11.67;52.97;102631.42;1817674;78;21150;-72
2021/10/24 06:46:48;;;;;;;17.73;6.60;;;;;;;11.73;52.93;102630.53;1809131;78;21150;-71
2021/10/24 06:49:22;;;;;;;18.35;7.28;;;;;;;11.89;53.26;102632.83;1808365;78;21315;-71
2021/10/24 06:51:58;;;;;;;22.60;7.17;;;;;;;12.06;52.99;102634.03;1799077;78;21370;-71
2021/10/24 06:54:42;;;;;;;22.45;6.92;;;;;;;12.20;52.56;102635.66;1788233;78;21949;-72
2021/10/24 06:57:23;;;;;;;22.05;6.17;;;;;;;12.32;51.95;102627.43;1749680;80;21173;-71
2021/10/24 07:00:13;;;;;;;25.08;6.75;;;;;;;12.39;51.75;102630.49;1699602;84;21960;-72
2021/10/24 07:03:03;;;;;;;15.23;6.20;;;;;;;12.49;51.16;102630.86;1786088;78;21189;-79
2021/10/24 07:05:54;;;;;;;23.50;6.33;;;;;;;12.55;51.20;102631.88;1792655;80;21355;-73
2021/10/24 07:08:28;;;;;;;19.02;7.00;;;;;;;12.61;51.17;102637.42;1792253;78;21220;-72
2021/10/24 07:11:01;;;;;;;18.35;5.90;;;;;;;12.67;51.43;102636.52;1792744;79;21173;-72
2021/10/24 07:13:34;;;;;;;17.17;6.47;;;;;;;12.72;51.07;102644.19;1815782;78;21300;-84
2021/10/24 07:16:08;;;;;;;22.07;7.10;;;;;;;12.80;50.63;102649.47;1824978;78;21142;-82
2021/10/24 07:18:41;;;;;;;14.23;6.55;;;;;;;12.75;50.03;102648.77;1824869;78;21359;-74
2021/10/24 07:21:13;;;;;;;18.55;6.60;;;;;;;12.68;50.68;102657.72;1824791;78;21845;-79
2021/10/24 07:23:46;;;;;;;19.75;6.70;;;;;;;12.66;50.53;102654.84;1814990;78;21402;-76
2021/10/24 07:26:26;;;;;;;15.30;5.97;;;;;;;12.61;50.79;102660.23;1824622;78;21838;-72
2021/10/24 07:28:59;;;;;;;14.73;6.58;;;;;;;12.54;50.74;102644.11;1824797;78;21359;-85
2021/10/24 07:31:33;;;;;;;17.37;5.90;;;;;;;12.45;50.98;102645.45;1819262;77;21317;-74
2021/10/24 07:34:24;;;;;;;20.48;5.65;;;;;;;12.36;51.06;102647.64;1809028;79;21316;-73
2021/10/24 07:36:59;;;;;;;19.10;6.50;;;;;;;12.34;51.24;102638.66;1812975;79;21862;-77
2021/10/24 07:39:33;;;;;;;18.77;6.45;;;;;;;12.34;51.49;102644.80;1801775;79;21224;-73
2021/10/24 07:42:05;;;;;;;17.12;6.60;;;;;;;12.36;51.59;102650.98;1781166;80;21181;-74
2021/10/24 07:44:40;;;;;;;22.40;6.85;;;;;;;12.35;51.64;102645.94;1796673;79;21750;-74
2021/10/24 07:47:14;;;;;;;14.28;5.75;;;;;;;12.32;51.77;102649.19;1796351;79;21159;-72
2021/10/24 07:49:46;;;;;;;23.20;8.98;;;;;;;12.31;52.04;102643.31;1810120;77;21206;-73
2021/10/24 07:52:19;;;;;;;14.93;6.37;;;;;;;12.35;52.26;102638.14;1810998;79;21309;-85
2021/10/24 07:54:53;;;;;;;13.72;6.12;;;;;;;12.41;52.05;102647.83;1741095;82;21400;-72
2021/10/24 07:57:26;;;;;;;16.10;5.58;;;;;;;12.48;51.96;102649.19;1798507;79;21747;-75
2021/10/24 07:59:59;;;;;;;12.58;5.62;;;;;;;12.52;51.48;102646.25;1810310;79;21376;-73
2021/10/24 08:02:38;;;;;;;18.17;6.03;;;;;;;12.54;51.22;102650.52;1778944;80;21383;-79
2021/10/24 08:05:13;;;;;;;19.67;6.80;;;;;;;12.55;51.07;102643.03;1736055;82;21197;-84
2021/10/24 08:07:48;;;;;;;14.90;5.67;;;;;;;12.55;51.37;102650.86;1798349;79;21356;-85
2021/10/24 08:10:20;;;;;;;17.48;5.17;;;;;;;12.58;51.17;102651.78;1816620;79;21309;-79
2021/10/24 08:12:55;;;;;;;24.43;6.40;;;;;;;12.63;50.76;102649.18;1803332;79;21182;-81
2021/10/24 08:15:27;;;;;;;22.48;6.92;;;;;;;12.65;50.47;102652.59;1787717;79;21627;-75
2021/10/24 08:18:03;;;;;;;20.95;6.17;;;;;;;12.63;50.38;102655.28;1804086;79;21337;-75
2021/10/24 08:20:40;;;;;;;22.00;4.87;;;;;;;12.64;49.91;102655.59;1754395;79;21218;-73
2021/10/24 08:23:19;;;;;;;19.92;7.60;;;;;;;12.59;49.57;102651.27;1799833;79;21384;-76
2021/10/24 08:25:54;;;;;;;15.32;5.70;;;;;;;12.54;49.76;102658.88;1808757;79;21305;-78
2021/10/24 08:28:27;;;;;;;21.42;7.40;;;;;;;12.51;49.41;102659.87;1782534;79;21451;-72
2021/10/24 08:31:24;;;;;;;23.47;8.05;;;;;;;12.51;49.73;102662.66;1707280;82;21198;-74
2021/10/24 08:33:54;;;;;;;18.73;5.80;;;;;;;12.51;48.82;102652.38;1776613;78;21878;-78
2021/10/24 08:36:28;;;;;;;14.80;4.28;;;;;;;12.51;48.01;102650.98;1732027;82;21374;-77
2021/10/24 08:39:10;;;;;;;13.05;4.37;;;;;;;12.53;47.60;102657.17;1783761;79;21253;-82
2021/10/24 08:41:49;;;;;;;18.98;5.45;;;;;;;12.49;46.57;102648.11;1779318;79;21379;-75
2021/10/24 08:44:23;;;;;;;11.38;4.20;;;;;;;12.47;46.89;102660.03;1799337;79;21899;-82
2021/10/24 08:46:55;;;;;;;12.15;4.03;;;;;;;12.46;46.94;102648.02;1778148;79;21163;-75
2021/10/24 08:49:32;;;;;;;17.20;3.92;;;;;;;12.49;47.07;102660.12;1780585;79;21846;-76
2021/10/24 08:52:08;;;;;;;10.70;4.05;;;;;;;12.54;46.98;102654.70;1784767;79;21345;-78
2021/10/24 08:54:46;;;;;;;14.93;4.17;;;;;;;12.60;46.81;102653.80;1813545;79;21155;-81
2021/10/24 08:57:28;;;;;;;16.00;4.87;;;;;;;12.69;46.78;102659.43;1781879;79;21384;-81
2021/10/24 09:00:08;;;;;;;11.75;3.65;;;;;;;12.76;46.37;102657.96;1750574;80;21336;-81
2021/10/24 09:03:03;;;;;;;14.70;3.40;;;;;;;12.81;46.45;102656.22;1772423;81;21238;-75
2021/10/24 09:05:39;;;;;;;14.05;3.05;;;;;;;12.87;45.75;102648.34;1752455;81;21258;-83
2021/10/24 09:08:15;;;;;;;10.50;3.90;;;;;;;12.91;45.98;102648.73;1772706;80;21392;-77
2021/10/24 09:10:59;;;;;;;10.93;2.95;;;;;;;12.96;45.28;102644.20;1772622;80;21380;-76
2021/10/24 09:13:36;;;;;;;9.20;3.17;;;;;;;12.99;45.43;102643.77;1772610;80;21221;-75
2021/10/24 09:16:12;;;;;;;11.12;2.52;;;;;;;13.02;45.97;102641.06;1772648;81;21171;-75
2021/10/24 09:18:49;;;;;;;11.48;3.12;;;;;;;13.04;45.92;102636.97;1772740;81;21206;-73
2021/10/24 09:21:26;;;;;;;14.23;3.30;;;;;;;13.05;45.19;102640.59;1772723;81;21233;-82
2021/10/24 09:24:10;;;;;;;11.00;3.00;;;;;;;13.04;45.42;102630.52;1772734;81;21222;-75
2021/10/24 09:26:43;;;;;;;16.15;3.45;;;;;;;13.06;45.03;102640.37;1773237;80;21190;-76
2021/10/24 09:29:18;;;;;;;9.60;2.65;;;;;;;13.06;45.30;102640.37;1772951;80;21249;-83
2021/10/24 09:31:55;;;;;;;10.32;3.00;;;;;;;13.03;45.25;102632.44;1800390;79;21325;-76
2021/10/24 09:34:37;;;;;;;10.70;3.62;;;;;;;13.00;45.50;102644.08;1739491;82;21253;-78
2021/10/24 09:37:20;;;;;;;10.25;3.62;;;;;;;12.99;45.90;102647.95;1781275;78;21309;-77
2021/10/24 09:40:12;;;;;;;15.88;3.60;;;;;;;12.95;45.69;102638.84;1810679;78;21321;-76
2021/10/24 09:42:44;;;;;;;;;;;;;;;12.91;45.30;102638.42;1813086;79;21258;-76
2021/10/24 09:45:16;;;;;;;14.45;3.72;;;;;;;12.87;45.02;102634.41;1810262;78;20407;-79
2021/10/24 09:47:49;;;;;;;16.95;3.45;;;;;;;12.82;44.86;102641.20;1792326;78;21320;-76
2021/10/24 09:50:35;;;;;;;6.67;2.40;;;;;;;12.79;44.94;102627.73;1788760;78;21886;-75
2021/10/24 09:53:24;;;;;;;15.75;3.72;;;;;;;12.80;45.23;102635.01;1795228;78;22600;-77
2021/10/24 09:56:04;;;;;;;13.08;4.50;;;;;;;12.84;45.45;102627.04;1800616;78;21329;-76
2021/10/24 09:58:43;;;;;;;15.32;4.53;;;;;;;12.90;45.68;102636.72;1797300;78;21356;-75
2021/10/24 10:01:22;;;;;;;12.28;3.33;;;;;;;12.97;45.68;102633.36;1791413;79;21395;-75
2021/10/24 10:03:59;;;;;;;15.13;3.45;;;;;;;13.08;45.93;102633.17;1794637;79;21461;-76
2021/10/24 10:06:32;;;;;;;15.35;3.70;;;;;;;13.22;46.05;102637.00;1787807;79;21376;-79
2021/10/24 10:09:05;;;;;;;13.08;4.10;;;;;;;13.34;46.23;102640.73;1753227;81;21851;-80
2021/10/24 10:11:42;;;;;;;14.68;4.45;;;;;;;13.38;46.08;102641.96;1790539;79;21648;-74
2021/10/24 10:14:30;;;;;;;14.07;4.70;;;;;;;13.37;46.16;102643.05;1799571;79;21333;-76
2021/10/24 10:17:21;;;;;;;11.33;4.47;;;;;;;13.38;46.21;102639.17;1805429;79;21388;-72
2021/10/24 10:19:53;;;;;;;14.78;4.40;;;;;;;13.38;46.47;102634.16;1788528;79;21225;-73
2021/10/24 10:22:29;;;;;;;13.08;3.98;;;;;;;13.37;46.60;102639.39;1792788;79;21379;-72
2021/10/24 10:25:07;;;;;;;12.23;4.40;;;;;;;13.32;46.72;102642.88;1779344;80;21325;-78
2021/10/24 10:27:42;;;;;;;12.15;4.00;;;;;;;13.27;46.83;102642.72;1782577;79;21919;-73
2021/10/24 10:30:22;;;;;;;;;;;;;;;13.26;47.00;102645.20;1813297;79;21317;-74
2021/10/24 10:32:55;;;;;;;11.18;3.98;;;;;;;13.26;47.12;102648.55;1777158;78;20308;-77
2021/10/24 10:35:30;;;;;;;10.90;4.40;;;;;;;13.18;46.54;102649.70;1773947;81;21213;-78
2021/10/24 10:38:04;;;;;;;9.35;4.30;;;;;;;13.14;46.10;102639.23;1769199;81;21215;-78
2021/10/24 10:40:41;;;;;;;11.65;4.28;;;;;;;13.09;45.90;102648.27;1769328;79;21813;-75
2021/10/24 10:43:22;;;;;;;9.25;4.03;;;;;;;13.07;46.53;102644.86;1733091;83;21196;-76
2021/10/24 10:45:56;;;;;;;14.25;4.62;;;;;;;13.08;47.04;102642.38;1705416;82;21205;-78
2021/10/24 10:48:46;;;;;;;11.30;5.05;;;;;;;13.12;47.40;102638.59;1678532;83;21367;-73
2021/10/24 10:51:26;;;;;;;14.28;4.95;;;;;;;13.18;47.64;102645.51;1695118;84;21404;-75
2021/10/24 10:54:04;;;;;;;11.20;4.60;;;;;;;13.27;47.39;102650.25;1700643;83;21359;-73
2021/10/24 10:56:53;;;;;;;9.08;3.72;;;;;;;13.31;46.74;102653.74;1700942;82;21863;-73
2021/10/24 10:59:37;;;;;;;11.12;3.85;;;;;;;13.34;46.53;102651.91;1719803;82;21191;-70
2021/10/24 11:02:29;;;;;;;8.50;4.05;;;;;;;13.32;46.13;102646.23;1696497;84;21344;-72
2021/10/24 11:05:03;;;;;;;7.83;3.83;;;;;;;13.28;46.04;102648.64;1710972;83;21387;-72
2021/10/24 11:07:46;;;;;;;11.05;3.85;;;;;;;13.30;45.67;102655.36;1687367;84;21348;-72
2021/10/24 11:10:46;;;;;;;7.22;3.50;;;;;;;13.30;45.64;102660.41;1693854;84;21336;-71
2021/10/24 11:13:34;;;;;;;6.85;3.33;;;;;;;13.35;45.37;102652.21;1691344;84;21351;-72
2021/10/24 11:16:48;;;;;;;8.85;3.62;;;;;;;13.43;45.13;102661.66;1695895;84;21321;-73
2021/10/24 11:19:39;;;;;;;10.68;4.10;;;;;;;13.50;45.32;102673.61;1691510;84;21352;-72
2021/10/24 11:22:18;;;;;;;10.40;4.05;;;;;;;13.50;45.29;102676.40;1695773;84;21308;-72
2021/10/24 11:24:55;;;;;;;12.20;3.98;;;;;;;13.48;45.56;102677.18;1672335;85;21199;-72
2021/10/24 11:27:32;;;;;;;18.37;5.53;;;;;;;13.48;45.71;102667.41;1721346;83;21866;-72
2021/10/24 11:30:14;;;;;;;19.90;6.10;;;;;;;13.50;45.64;102668.59;1700230;83;21316;-75
2021/10/24 11:32:44;;;;;;;16.05;6.47;;;;;;;13.47;45.85;102677.41;1688465;84;21305;-74
2021/10/24 11:35:19;;;;;;;17.02;5.87;;;;;;;13.45;46.04;102674.83;1692007;84;21249;-70
2021/10/24 11:37:57;;;;;;;15.18;5.15;;;;;;;13.45;45.57;102669.25;1685735;84;21352;-72
2021/10/24 11:40:36;;;;;;;11.35;4.90;;;;;;;13.44;45.37;102667.55;1690719;85;21328;-72
2021/10/24 11:43:15;;;;;;;12.85;4.80;;;;;;;13.43;45.42;102661.66;1705526;84;21195;-74
2021/10/24 11:45:55;;;;;;;11.03;4.53;;;;;;;13.43;45.42;102661.66;1705623;84;21321;-71
2021/10/24 11:48:30;;;;;;;9.05;4.20;;;;;;;13.35;46.01;102672.27;1690661;85;21201;-72
2021/10/24 11:51:07;;;;;;;10.72;4.95;;;;;;;13.35;46.01;102672.27;1705417;83;21862;-72
2021/10/24 11:53:42;;;;;;;12.40;4.80;;;;;;;13.34;45.78;102681.20;1690785;85;21407;-72
2021/10/24 11:59:12;;;;;;;15.93;4.25;;;;;;;13.30;45.86;102675.76;1691126;85;21328;-77
2021/10/24 12:01:39;;;;;;;7.85;4.00;;;;;;;13.30;45.46;102681.34;1702501;83;21286;-73
2021/10/24 12:04:13;;;;;;;10.43;3.17;;;;;;;13.26;45.39;102677.29;1705946;84;21862;-73